sensor_id;sensor_type;location;lat;lon;timestamp;P1;durP1;ratioP1;P2;durP2;ratioP2
79139;SDS011;68546;59.142;37.948;2023-12-20T00:01:55;98.70;;;44.08;;
79139;SDS011;68546;59.142;37.948;2023-12-20T00:04:21;101.10;;;45.03;;
79139;SDS011;68546;59.142;37.948;2023-12-20T00:06:48;98.88;;;44.38;;
79139;SDS011;68546;59.142;37.948;2023-12-20T00:09:14;93.97;;;43.03;;
79139;SDS011;68546;59.142;37.948;2023-12-20T00:11:40;95.20;;;43.17;;
79139;SDS011;68546;59.142;37.948;2023-12-20T00:14:08;90.10;;;42.33;;
79139;SDS011;68546;59.142;37.948;2023-12-20T00:16:34;86.95;;;41.63;;
79139;SDS011;68546;59.142;37.948;2023-12-20T00:19:01;86.90;;;41.40;;
79139;SDS011;68546;59.142;37.948;2023-12-20T00:21:27;83.65;;;40.80;;
79139;SDS011;68546;59.142;37.948;2023-12-20T00:23:54;81.20;;;40.00;;
79139;SDS011;68546;59.142;37.948;2023-12-20T00:26:20;79.82;;;39.80;;
79139;SDS011;68546;59.142;37.948;2023-12-20T00:28:46;81.55;;;40.35;;
79139;SDS011;68546;59.142;37.948;2023-12-20T00:31:13;82.72;;;40.00;;
79139;SDS011;68546;59.142;37.948;2023-12-20T00:33:40;80.80;;;40.22;;
79139;SDS011;68546;59.142;37.948;2023-12-20T00:36:09;86.30;;;41.47;;
79139;SDS011;68546;59.142;37.948;2023-12-20T00:38:35;87.93;;;41.53;;
79139;SDS011;68546;59.142;37.948;2023-12-20T00:41:02;88.82;;;42.08;;
79139;SDS011;68546;59.142;37.948;2023-12-20T00:43:28;96.38;;;43.03;;
79139;SDS011;68546;59.142;37.948;2023-12-20T00:45:55;99.32;;;44.13;;
79139;SDS011;68546;59.142;37.948;2023-12-20T00:48:21;102.22;;;45.25;;
79139;SDS011;68546;59.142;37.948;2023-12-20T00:50:48;103.43;;;45.33;;
79139;SDS011;68546;59.142;37.948;2023-12-20T00:53:14;107.23;;;45.67;;
79139;SDS011;68546;59.142;37.948;2023-12-20T00:55:40;109.60;;;46.72;;
79139;SDS011;68546;59.142;37.948;2023-12-20T00:58:07;112.63;;;46.70;;
79139;SDS011;68546;59.142;37.948;2023-12-20T01:00:33;116.47;;;47.73;;
79139;SDS011;68546;59.142;37.948;2023-12-20T01:03:00;116.80;;;48.00;;
79139;SDS011;68546;59.142;37.948;2023-12-20T01:05:26;120.65;;;49.17;;
79139;SDS011;68546;59.142;37.948;2023-12-20T01:07:52;119.60;;;48.42;;
79139;SDS011;68546;59.142;37.948;2023-12-20T01:10:19;126.18;;;49.20;;
79139;SDS011;68546;59.142;37.948;2023-12-20T01:12:46;124.35;;;49.45;;
79139;SDS011;68546;59.142;37.948;2023-12-20T01:15:12;126.78;;;49.40;;
79139;SDS011;68546;59.142;37.948;2023-12-20T01:17:38;132.40;;;50.83;;
79139;SDS011;68546;59.142;37.948;2023-12-20T01:20:05;130.43;;;50.30;;
79139;SDS011;68546;59.142;37.948;2023-12-20T01:22:32;132.70;;;51.00;;
79139;SDS011;68546;59.142;37.948;2023-12-20T01:25:01;136.70;;;51.47;;
79139;SDS011;68546;59.142;37.948;2023-12-20T01:27:28;140.15;;;51.97;;
79139;SDS011;68546;59.142;37.948;2023-12-20T01:29:55;136.68;;;51.45;;
79139;SDS011;68546;59.142;37.948;2023-12-20T01:32:22;136.82;;;51.53;;
79139;SDS011;68546;59.142;37.948;2023-12-20T01:34:48;141.10;;;52.45;;
79139;SDS011;68546;59.142;37.948;2023-12-20T01:37:15;141.45;;;52.25;;
79139;SDS011;68546;59.142;37.948;2023-12-20T01:39:41;140.43;;;52.25;;
79139;SDS011;68546;59.142;37.948;2023-12-20T01:42:07;141.63;;;52.53;;
79139;SDS011;68546;59.142;37.948;2023-12-20T01:44:34;140.20;;;52.00;;
79139;SDS011;68546;59.142;37.948;2023-12-20T01:47:00;141.77;;;52.38;;
79139;SDS011;68546;59.142;37.948;2023-12-20T01:49:27;143.53;;;53.00;;
79139;SDS011;68546;59.142;37.948;2023-12-20T01:51:54;142.63;;;52.35;;
79139;SDS011;68546;59.142;37.948;2023-12-20T01:54:21;141.45;;;52.58;;
79139;SDS011;68546;59.142;37.948;2023-12-20T01:56:48;143.30;;;52.15;;
79139;SDS011;68546;59.142;37.948;2023-12-20T01:59:16;144.55;;;52.90;;
79139;SDS011;68546;59.142;37.948;2023-12-20T02:01:45;145.25;;;53.08;;
79139;SDS011;68546;59.142;37.948;2023-12-20T02:04:11;137.45;;;52.00;;
79139;SDS011;68546;59.142;37.948;2023-12-20T02:06:38;138.90;;;51.37;;
79139;SDS011;68546;59.142;37.948;2023-12-20T02:09:06;133.45;;;51.10;;
79139;SDS011;68546;59.142;37.948;2023-12-20T02:11:33;129.20;;;50.30;;
79139;SDS011;68546;59.142;37.948;2023-12-20T02:14:01;129.03;;;49.73;;
79139;SDS011;68546;59.142;37.948;2023-12-20T02:16:28;124.72;;;49.30;;
79139;SDS011;68546;59.142;37.948;2023-12-20T02:18:54;122.47;;;48.55;;
79139;SDS011;68546;59.142;37.948;2023-12-20T02:21:33;121.60;;;48.72;;
79139;SDS011;68546;59.142;37.948;2023-12-20T02:24:02;124.15;;;48.97;;
79139;SDS011;68546;59.142;37.948;2023-12-20T02:26:29;120.05;;;48.60;;
79139;SDS011;68546;59.142;37.948;2023-12-20T02:28:56;119.53;;;48.33;;
79139;SDS011;68546;59.142;37.948;2023-12-20T02:31:23;123.57;;;48.93;;
79139;SDS011;68546;59.142;37.948;2023-12-20T02:33:49;126.68;;;49.13;;
79139;SDS011;68546;59.142;37.948;2023-12-20T02:36:16;123.18;;;48.92;;
79139;SDS011;68546;59.142;37.948;2023-12-20T02:38:42;124.00;;;49.07;;
79139;SDS011;68546;59.142;37.948;2023-12-20T02:41:09;122.63;;;48.70;;
79139;SDS011;68546;59.142;37.948;2023-12-20T02:43:35;121.30;;;48.88;;
79139;SDS011;68546;59.142;37.948;2023-12-20T02:46:02;118.57;;;48.05;;
79139;SDS011;68546;59.142;37.948;2023-12-20T02:48:28;123.38;;;48.90;;
79139;SDS011;68546;59.142;37.948;2023-12-20T02:50:54;119.85;;;48.80;;
79139;SDS011;68546;59.142;37.948;2023-12-20T02:53:21;120.22;;;48.50;;
79139;SDS011;68546;59.142;37.948;2023-12-20T02:55:47;119.97;;;48.20;;
79139;SDS011;68546;59.142;37.948;2023-12-20T02:58:14;114.93;;;47.67;;
79139;SDS011;68546;59.142;37.948;2023-12-20T03:00:40;116.45;;;47.70;;
79139;SDS011;68546;59.142;37.948;2023-12-20T03:03:07;117.60;;;47.90;;
79139;SDS011;68546;59.142;37.948;2023-12-20T03:05:33;113.85;;;47.17;;
79139;SDS011;68546;59.142;37.948;2023-12-20T03:07:59;113.53;;;47.13;;
79139;SDS011;68546;59.142;37.948;2023-12-20T03:10:26;110.97;;;46.45;;
79139;SDS011;68546;59.142;37.948;2023-12-20T03:12:52;113.03;;;46.85;;
79139;SDS011;68546;59.142;37.948;2023-12-20T03:15:19;108.63;;;46.47;;
79139;SDS011;68546;59.142;37.948;2023-12-20T03:17:45;105.30;;;45.65;;
79139;SDS011;68546;59.142;37.948;2023-12-20T03:20:12;106.50;;;45.63;;
79139;SDS011;68546;59.142;37.948;2023-12-20T03:22:38;101.38;;;44.83;;
79139;SDS011;68546;59.142;37.948;2023-12-20T03:25:05;101.30;;;44.72;;
79139;SDS011;68546;59.142;37.948;2023-12-20T03:27:31;101.83;;;44.90;;
79139;SDS011;68546;59.142;37.948;2023-12-20T03:29:58;99.50;;;44.05;;
79139;SDS011;68546;59.142;37.948;2023-12-20T03:32:24;96.72;;;43.65;;
79139;SDS011;68546;59.142;37.948;2023-12-20T03:34:50;95.65;;;43.63;;
79139;SDS011;68546;59.142;37.948;2023-12-20T03:37:17;96.82;;;43.63;;
79139;SDS011;68546;59.142;37.948;2023-12-20T03:39:43;93.35;;;43.22;;
79139;SDS011;68546;59.142;37.948;2023-12-20T03:42:10;90.85;;;42.17;;
79139;SDS011;68546;59.142;37.948;2023-12-20T03:44:38;92.63;;;42.60;;
79139;SDS011;68546;59.142;37.948;2023-12-20T03:47:06;88.60;;;41.88;;
79139;SDS011;68546;59.142;37.948;2023-12-20T03:49:32;86.28;;;41.38;;
79139;SDS011;68546;59.142;37.948;2023-12-20T03:51:59;92.03;;;41.47;;
79139;SDS011;68546;59.142;37.948;2023-12-20T03:54:25;85.78;;;41.22;;
79139;SDS011;68546;59.142;37.948;2023-12-20T03:56:52;82.97;;;40.72;;
79139;SDS011;68546;59.142;37.948;2023-12-20T03:59:18;84.07;;;40.67;;
79139;SDS011;68546;59.142;37.948;2023-12-20T04:01:44;87.20;;;41.67;;
79139;SDS011;68546;59.142;37.948;2023-12-20T04:04:13;87.07;;;41.40;;
79139;SDS011;68546;59.142;37.948;2023-12-20T04:06:40;89.65;;;42.05;;
79139;SDS011;68546;59.142;37.948;2023-12-20T04:09:06;87.97;;;41.97;;
79139;SDS011;68546;59.142;37.948;2023-12-20T04:11:35;96.53;;;43.40;;
79139;SDS011;68546;59.142;37.948;2023-12-20T04:14:02;96.43;;;43.75;;
79139;SDS011;68546;59.142;37.948;2023-12-20T04:16:30;102.87;;;44.87;;
79139;SDS011;68546;59.142;37.948;2023-12-20T04:18:57;97.85;;;43.83;;
79139;SDS011;68546;59.142;37.948;2023-12-20T04:21:23;100.90;;;44.55;;
79139;SDS011;68546;59.142;37.948;2023-12-20T04:23:50;103.65;;;44.95;;
79139;SDS011;68546;59.142;37.948;2023-12-20T04:26:16;103.18;;;44.88;;
79139;SDS011;68546;59.142;37.948;2023-12-20T04:28:42;99.35;;;44.35;;
79139;SDS011;68546;59.142;37.948;2023-12-20T04:31:09;98.85;;;44.00;;
79139;SDS011;68546;59.142;37.948;2023-12-20T04:33:35;95.57;;;43.67;;
79139;SDS011;68546;59.142;37.948;2023-12-20T04:36:02;90.88;;;42.47;;
79139;SDS011;68546;59.142;37.948;2023-12-20T04:38:29;90.03;;;42.30;;
79139;SDS011;68546;59.142;37.948;2023-12-20T04:40:55;88.00;;;41.80;;
79139;SDS011;68546;59.142;37.948;2023-12-20T04:43:22;84.95;;;40.95;;
79139;SDS011;68546;59.142;37.948;2023-12-20T04:45:48;79.50;;;39.80;;
79139;SDS011;68546;59.142;37.948;2023-12-20T04:48:15;80.60;;;39.72;;
79139;SDS011;68546;59.142;37.948;2023-12-20T04:50:41;82.30;;;39.63;;
79139;SDS011;68546;59.142;37.948;2023-12-20T04:53:08;73.90;;;38.47;;
79139;SDS011;68546;59.142;37.948;2023-12-20T04:55:34;73.03;;;37.78;;
79139;SDS011;68546;59.142;37.948;2023-12-20T04:58:01;70.87;;;37.53;;
79139;SDS011;68546;59.142;37.948;2023-12-20T05:00:27;68.13;;;36.92;;
79139;SDS011;68546;59.142;37.948;2023-12-20T05:02:54;68.53;;;36.53;;
79139;SDS011;68546;59.142;37.948;2023-12-20T05:05:20;68.83;;;36.70;;
79139;SDS011;68546;59.142;37.948;2023-12-20T05:07:47;67.10;;;36.20;;
79139;SDS011;68546;59.142;37.948;2023-12-20T05:10:13;67.35;;;36.17;;
79139;SDS011;68546;59.142;37.948;2023-12-20T05:12:40;65.53;;;36.17;;
79139;SDS011;68546;59.142;37.948;2023-12-20T05:15:07;76.65;;;37.05;;
79139;SDS011;68546;59.142;37.948;2023-12-20T05:17:33;67.30;;;36.70;;
79139;SDS011;68546;59.142;37.948;2023-12-20T05:20:00;67.75;;;36.58;;
79139;SDS011;68546;59.142;37.948;2023-12-20T05:22:27;67.77;;;36.70;;
79139;SDS011;68546;59.142;37.948;2023-12-20T05:24:53;66.35;;;36.10;;
79139;SDS011;68546;59.142;37.948;2023-12-20T05:27:20;64.68;;;35.63;;
79139;SDS011;68546;59.142;37.948;2023-12-20T05:29:46;67.30;;;36.10;;
79139;SDS011;68546;59.142;37.948;2023-12-20T05:32:13;67.68;;;36.75;;
79139;SDS011;68546;59.142;37.948;2023-12-20T05:34:39;71.68;;;36.63;;
79139;SDS011;68546;59.142;37.948;2023-12-20T05:37:05;66.28;;;36.47;;
79139;SDS011;68546;59.142;37.948;2023-12-20T05:39:31;75.00;;;38.15;;
79139;SDS011;68546;59.142;37.948;2023-12-20T05:41:57;76.50;;;37.28;;
79139;SDS011;68546;59.142;37.948;2023-12-20T05:44:24;69.63;;;37.63;;
79139;SDS011;68546;59.142;37.948;2023-12-20T05:46:50;75.53;;;38.07;;
79139;SDS011;68546;59.142;37.948;2023-12-20T05:49:16;72.82;;;37.70;;
79139;SDS011;68546;59.142;37.948;2023-12-20T05:51:42;74.03;;;38.33;;
79139;SDS011;68546;59.142;37.948;2023-12-20T05:54:09;75.30;;;38.83;;
79139;SDS011;68546;59.142;37.948;2023-12-20T05:56:35;73.22;;;38.65;;
79139;SDS011;68546;59.142;37.948;2023-12-20T05:59:01;77.60;;;38.60;;
79139;SDS011;68546;59.142;37.948;2023-12-20T06:01:27;71.32;;;37.83;;
79139;SDS011;68546;59.142;37.948;2023-12-20T06:03:53;74.35;;;38.47;;
79139;SDS011;68546;59.142;37.948;2023-12-20T06:06:20;67.53;;;36.92;;
79139;SDS011;68546;59.142;37.948;2023-12-20T06:08:46;65.85;;;36.05;;
79139;SDS011;68546;59.142;37.948;2023-12-20T06:11:12;64.87;;;35.83;;
79139;SDS011;68546;59.142;37.948;2023-12-20T06:13:39;60.55;;;34.50;;
79139;SDS011;68546;59.142;37.948;2023-12-20T06:16:05;62.38;;;34.28;;
79139;SDS011;68546;59.142;37.948;2023-12-20T06:18:33;60.97;;;34.20;;
79139;SDS011;68546;59.142;37.948;2023-12-20T06:20:59;54.58;;;32.38;;
79139;SDS011;68546;59.142;37.948;2023-12-20T06:23:25;55.38;;;32.80;;
79139;SDS011;68546;59.142;37.948;2023-12-20T06:25:52;57.10;;;33.00;;
79139;SDS011;68546;59.142;37.948;2023-12-20T06:28:19;63.85;;;34.85;;
79139;SDS011;68546;59.142;37.948;2023-12-20T06:30:45;58.70;;;33.45;;
79139;SDS011;68546;59.142;37.948;2023-12-20T06:33:15;57.28;;;32.90;;
79139;SDS011;68546;59.142;37.948;2023-12-20T06:35:41;58.13;;;33.23;;
79139;SDS011;68546;59.142;37.948;2023-12-20T06:38:08;55.95;;;32.55;;
79139;SDS011;68546;59.142;37.948;2023-12-20T06:40:35;53.95;;;32.25;;
79139;SDS011;68546;59.142;37.948;2023-12-20T06:43:01;55.13;;;32.93;;
79139;SDS011;68546;59.142;37.948;2023-12-20T06:45:28;57.42;;;32.42;;
79139;SDS011;68546;59.142;37.948;2023-12-20T06:47:57;54.08;;;32.20;;
79139;SDS011;68546;59.142;37.948;2023-12-20T06:50:24;58.15;;;33.08;;
79139;SDS011;68546;59.142;37.948;2023-12-20T06:52:50;52.35;;;31.63;;
79139;SDS011;68546;59.142;37.948;2023-12-20T06:55:17;53.40;;;31.75;;
79139;SDS011;68546;59.142;37.948;2023-12-20T06:57:44;55.17;;;32.35;;
79139;SDS011;68546;59.142;37.948;2023-12-20T07:00:11;58.43;;;33.70;;
79139;SDS011;68546;59.142;37.948;2023-12-20T07:02:38;58.25;;;33.65;;
79139;SDS011;68546;59.142;37.948;2023-12-20T07:05:04;61.70;;;35.03;;
79139;SDS011;68546;59.142;37.948;2023-12-20T07:07:31;67.17;;;36.20;;
79139;SDS011;68546;59.142;37.948;2023-12-20T07:09:58;67.60;;;36.35;;
79139;SDS011;68546;59.142;37.948;2023-12-20T07:12:24;69.50;;;36.28;;
79139;SDS011;68546;59.142;37.948;2023-12-20T07:14:51;68.93;;;37.10;;
79139;SDS011;68546;59.142;37.948;2023-12-20T07:17:17;72.10;;;38.10;;
79139;SDS011;68546;59.142;37.948;2023-12-20T07:19:43;70.97;;;37.65;;
79139;SDS011;68546;59.142;37.948;2023-12-20T07:22:10;75.22;;;38.17;;
79139;SDS011;68546;59.142;37.948;2023-12-20T07:24:36;77.83;;;39.07;;
79139;SDS011;68546;59.142;37.948;2023-12-20T07:27:03;70.68;;;37.47;;
79139;SDS011;68546;59.142;37.948;2023-12-20T07:29:30;69.15;;;37.30;;
79139;SDS011;68546;59.142;37.948;2023-12-20T07:31:57;75.80;;;38.43;;
79139;SDS011;68546;59.142;37.948;2023-12-20T07:34:23;70.70;;;37.20;;
79139;SDS011;68546;59.142;37.948;2023-12-20T07:36:49;69.78;;;37.17;;
79139;SDS011;68546;59.142;37.948;2023-12-20T07:39:16;66.93;;;36.63;;
79139;SDS011;68546;59.142;37.948;2023-12-20T07:41:42;66.30;;;36.55;;
79139;SDS011;68546;59.142;37.948;2023-12-20T07:44:08;63.92;;;34.97;;
79139;SDS011;68546;59.142;37.948;2023-12-20T07:46:35;55.63;;;33.00;;
79139;SDS011;68546;59.142;37.948;2023-12-20T07:49:01;57.93;;;33.57;;
79139;SDS011;68546;59.142;37.948;2023-12-20T07:51:27;53.65;;;32.10;;
79139;SDS011;68546;59.142;37.948;2023-12-20T07:53:54;50.03;;;31.08;;
79139;SDS011;68546;59.142;37.948;2023-12-20T07:56:20;50.00;;;30.83;;
79139;SDS011;68546;59.142;37.948;2023-12-20T07:58:46;49.88;;;30.85;;
79139;SDS011;68546;59.142;37.948;2023-12-20T08:01:15;47.42;;;29.95;;
79139;SDS011;68546;59.142;37.948;2023-12-20T08:03:42;48.00;;;29.83;;
79139;SDS011;68546;59.142;37.948;2023-12-20T08:06:08;48.97;;;30.47;;
79139;SDS011;68546;59.142;37.948;2023-12-20T08:08:34;50.30;;;30.45;;
79139;SDS011;68546;59.142;37.948;2023-12-20T08:11:00;51.63;;;31.05;;
79139;SDS011;68546;59.142;37.948;2023-12-20T08:13:28;55.13;;;32.20;;
79139;SDS011;68546;59.142;37.948;2023-12-20T08:15:55;56.33;;;32.67;;
79139;SDS011;68546;59.142;37.948;2023-12-20T08:18:21;57.97;;;33.63;;
79139;SDS011;68546;59.142;37.948;2023-12-20T08:20:49;61.67;;;34.35;;
79139;SDS011;68546;59.142;37.948;2023-12-20T08:23:15;64.57;;;36.35;;
79139;SDS011;68546;59.142;37.948;2023-12-20T08:25:41;66.60;;;35.97;;
79139;SDS011;68546;59.142;37.948;2023-12-20T08:28:08;67.13;;;36.80;;
79139;SDS011;68546;59.142;37.948;2023-12-20T08:30:34;71.07;;;37.77;;
79139;SDS011;68546;59.142;37.948;2023-12-20T08:33:00;69.82;;;37.28;;
79139;SDS011;68546;59.142;37.948;2023-12-20T08:35:27;71.85;;;37.60;;
79139;SDS011;68546;59.142;37.948;2023-12-20T08:37:53;74.57;;;38.70;;
79139;SDS011;68546;59.142;37.948;2023-12-20T08:40:19;73.78;;;38.28;;
79139;SDS011;68546;59.142;37.948;2023-12-20T08:42:46;74.18;;;38.70;;
79139;SDS011;68546;59.142;37.948;2023-12-20T08:45:12;75.63;;;39.03;;
79139;SDS011;68546;59.142;37.948;2023-12-20T08:47:38;76.68;;;39.22;;
79139;SDS011;68546;59.142;37.948;2023-12-20T08:50:06;75.50;;;38.85;;
79139;SDS011;68546;59.142;37.948;2023-12-20T08:52:33;78.32;;;38.90;;
79139;SDS011;68546;59.142;37.948;2023-12-20T08:54:59;79.20;;;39.60;;
79139;SDS011;68546;59.142;37.948;2023-12-20T08:57:26;75.78;;;38.65;;
79139;SDS011;68546;59.142;37.948;2023-12-20T08:59:52;73.45;;;38.33;;
79139;SDS011;68546;59.142;37.948;2023-12-20T09:02:18;75.10;;;38.87;;
79139;SDS011;68546;59.142;37.948;2023-12-20T09:04:45;73.13;;;38.13;;
79139;SDS011;68546;59.142;37.948;2023-12-20T09:07:23;75.50;;;38.67;;
79139;SDS011;68546;59.142;37.948;2023-12-20T09:09:51;78.25;;;39.55;;
79139;SDS011;68546;59.142;37.948;2023-12-20T09:12:19;83.93;;;40.63;;
79139;SDS011;68546;59.142;37.948;2023-12-20T09:14:46;79.28;;;39.95;;
79139;SDS011;68546;59.142;37.948;2023-12-20T09:17:13;78.80;;;39.78;;
79139;SDS011;68546;59.142;37.948;2023-12-20T09:19:39;79.57;;;39.80;;
79139;SDS011;68546;59.142;37.948;2023-12-20T09:22:05;79.47;;;39.97;;
79139;SDS011;68546;59.142;37.948;2023-12-20T09:24:32;79.45;;;39.55;;
79139;SDS011;68546;59.142;37.948;2023-12-20T09:26:58;82.03;;;40.57;;
79139;SDS011;68546;59.142;37.948;2023-12-20T09:29:24;75.82;;;38.85;;
79139;SDS011;68546;59.142;37.948;2023-12-20T09:31:51;74.47;;;38.65;;
79139;SDS011;68546;59.142;37.948;2023-12-20T09:34:17;74.50;;;38.63;;
79139;SDS011;68546;59.142;37.948;2023-12-20T09:36:43;77.60;;;39.60;;
79139;SDS011;68546;59.142;37.948;2023-12-20T09:39:16;76.47;;;39.10;;
79139;SDS011;68546;59.142;37.948;2023-12-20T09:42:05;79.78;;;39.50;;
79139;SDS011;68546;59.142;37.948;2023-12-20T09:44:33;81.73;;;40.53;;
79139;SDS011;68546;59.142;37.948;2023-12-20T09:47:03;77.38;;;39.42;;
79139;SDS011;68546;59.142;37.948;2023-12-20T09:49:30;76.60;;;39.35;;
79139;SDS011;68546;59.142;37.948;2023-12-20T09:51:58;74.17;;;38.37;;
79139;SDS011;68546;59.142;37.948;2023-12-20T09:54:26;66.60;;;36.40;;
79139;SDS011;68546;59.142;37.948;2023-12-20T09:56:54;63.90;;;36.10;;
79139;SDS011;68546;59.142;37.948;2023-12-20T09:59:20;63.28;;;35.22;;
79139;SDS011;68546;59.142;37.948;2023-12-20T10:01:47;61.42;;;35.30;;
79139;SDS011;68546;59.142;37.948;2023-12-20T10:04:15;56.33;;;33.17;;
79139;SDS011;68546;59.142;37.948;2023-12-20T10:06:42;52.20;;;31.48;;
79139;SDS011;68546;59.142;37.948;2023-12-20T10:09:09;50.13;;;30.63;;
79139;SDS011;68546;59.142;37.948;2023-12-20T10:11:37;45.22;;;28.60;;
79139;SDS011;68546;59.142;37.948;2023-12-20T10:14:04;39.70;;;26.45;;
79139;SDS011;68546;59.142;37.948;2023-12-20T10:16:34;39.83;;;26.40;;
79139;SDS011;68546;59.142;37.948;2023-12-20T10:19:00;38.33;;;25.33;;
79139;SDS011;68546;59.142;37.948;2023-12-20T10:21:27;34.85;;;22.45;;
79139;SDS011;68546;59.142;37.948;2023-12-20T10:23:57;34.63;;;22.77;;
79139;SDS011;68546;59.142;37.948;2023-12-20T10:26:26;30.73;;;21.87;;
79139;SDS011;68546;59.142;37.948;2023-12-20T10:28:56;30.90;;;21.00;;
79139;SDS011;68546;59.142;37.948;2023-12-20T10:31:29;30.08;;;20.70;;
79139;SDS011;68546;59.142;37.948;2023-12-20T10:33:57;30.67;;;21.47;;
79139;SDS011;68546;59.142;37.948;2023-12-20T10:36:25;30.85;;;21.33;;
79139;SDS011;68546;59.142;37.948;2023-12-20T10:38:55;32.53;;;21.17;;
79139;SDS011;68546;59.142;37.948;2023-12-20T10:44:05;29.73;;;21.63;;
79139;SDS011;68546;59.142;37.948;2023-12-20T10:46:34;36.67;;;23.88;;
79139;SDS011;68546;59.142;37.948;2023-12-20T10:49:04;39.25;;;23.83;;
79139;SDS011;68546;59.142;37.948;2023-12-20T10:51:31;39.50;;;25.60;;
79139;SDS011;68546;59.142;37.948;2023-12-20T10:53:59;40.22;;;27.00;;
79139;SDS011;68546;59.142;37.948;2023-12-20T10:56:26;40.95;;;25.98;;
79139;SDS011;68546;59.142;37.948;2023-12-20T10:58:59;40.25;;;26.67;;
79139;SDS011;68546;59.142;37.948;2023-12-20T11:01:30;46.73;;;29.27;;
79139;SDS011;68546;59.142;37.948;2023-12-20T11:03:57;45.70;;;28.27;;
79139;SDS011;68546;59.142;37.948;2023-12-20T11:17:13;54.78;;;32.72;;
79139;SDS011;68546;59.142;37.948;2023-12-20T11:22:25;60.70;;;34.22;;
79139;SDS011;68546;59.142;37.948;2023-12-20T11:24:54;56.85;;;32.22;;
79139;SDS011;68546;59.142;37.948;2023-12-20T11:27:23;51.63;;;31.25;;
79139;SDS011;68546;59.142;37.948;2023-12-20T11:29:56;50.13;;;30.80;;
79139;SDS011;68546;59.142;37.948;2023-12-20T11:34:54;49.85;;;30.77;;
79139;SDS011;68546;59.142;37.948;2023-12-20T11:37:41;54.53;;;32.87;;
79139;SDS011;68546;59.142;37.948;2023-12-20T11:40:11;53.83;;;32.33;;
79139;SDS011;68546;59.142;37.948;2023-12-20T11:42:40;50.88;;;31.45;;
79139;SDS011;68546;59.142;37.948;2023-12-20T11:45:08;48.95;;;30.63;;
79139;SDS011;68546;59.142;37.948;2023-12-20T11:47:43;54.23;;;32.70;;
79139;SDS011;68546;59.142;37.948;2023-12-20T11:50:12;54.15;;;31.27;;
79139;SDS011;68546;59.142;37.948;2023-12-20T11:52:38;47.88;;;30.15;;
79139;SDS011;68546;59.142;37.948;2023-12-20T11:55:05;53.27;;;30.77;;
79139;SDS011;68546;59.142;37.948;2023-12-20T11:57:32;50.45;;;31.05;;
79139;SDS011;68546;59.142;37.948;2023-12-20T11:59:59;47.90;;;30.02;;
79139;SDS011;68546;59.142;37.948;2023-12-20T12:02:25;45.35;;;28.77;;
79139;SDS011;68546;59.142;37.948;2023-12-20T12:04:52;46.20;;;29.50;;
79139;SDS011;68546;59.142;37.948;2023-12-20T12:07:18;45.72;;;28.77;;
79139;SDS011;68546;59.142;37.948;2023-12-20T12:09:45;47.92;;;29.13;;
79139;SDS011;68546;59.142;37.948;2023-12-20T12:12:13;46.23;;;29.27;;
79139;SDS011;68546;59.142;37.948;2023-12-20T12:14:40;45.92;;;28.75;;
79139;SDS011;68546;59.142;37.948;2023-12-20T12:17:12;44.75;;;28.63;;
79139;SDS011;68546;59.142;37.948;2023-12-20T12:19:40;47.22;;;29.75;;
79139;SDS011;68546;59.142;37.948;2023-12-20T12:22:10;51.28;;;30.70;;
79139;SDS011;68546;59.142;37.948;2023-12-20T12:24:39;51.00;;;30.30;;
79139;SDS011;68546;59.142;37.948;2023-12-20T12:27:06;46.47;;;28.77;;
79139;SDS011;68546;59.142;37.948;2023-12-20T12:29:34;48.03;;;29.67;;
79139;SDS011;68546;59.142;37.948;2023-12-20T12:32:01;45.85;;;28.70;;
79139;SDS011;68546;59.142;37.948;2023-12-20T12:34:32;47.75;;;29.35;;
79139;SDS011;68546;59.142;37.948;2023-12-20T12:37:00;50.33;;;30.02;;
79139;SDS011;68546;59.142;37.948;2023-12-20T12:39:26;51.47;;;30.58;;
79139;SDS011;68546;59.142;37.948;2023-12-20T12:41:53;46.58;;;29.45;;
79139;SDS011;68546;59.142;37.948;2023-12-20T12:44:19;45.60;;;28.85;;
79139;SDS011;68546;59.142;37.948;2023-12-20T12:46:48;46.03;;;29.63;;
79139;SDS011;68546;59.142;37.948;2023-12-20T12:49:17;48.67;;;29.17;;
79139;SDS011;68546;59.142;37.948;2023-12-20T12:51:43;43.85;;;27.80;;
79139;SDS011;68546;59.142;37.948;2023-12-20T12:54:10;45.35;;;28.35;;
79139;SDS011;68546;59.142;37.948;2023-12-20T12:56:38;45.42;;;29.08;;
79139;SDS011;68546;59.142;37.948;2023-12-20T12:59:05;43.45;;;27.58;;
79139;SDS011;68546;59.142;37.948;2023-12-20T13:01:31;41.47;;;27.42;;
79139;SDS011;68546;59.142;37.948;2023-12-20T13:03:57;45.70;;;28.80;;
79139;SDS011;68546;59.142;37.948;2023-12-20T13:06:24;41.80;;;27.10;;
79139;SDS011;68546;59.142;37.948;2023-12-20T13:08:50;43.85;;;27.98;;
79139;SDS011;68546;59.142;37.948;2023-12-20T13:11:16;42.60;;;27.25;;
79139;SDS011;68546;59.142;37.948;2023-12-20T13:13:43;44.83;;;28.80;;
79139;SDS011;68546;59.142;37.948;2023-12-20T13:16:09;41.65;;;26.88;;
79139;SDS011;68546;59.142;37.948;2023-12-20T13:18:35;42.90;;;26.77;;
79139;SDS011;68546;59.142;37.948;2023-12-20T13:21:02;42.53;;;27.63;;
79139;SDS011;68546;59.142;37.948;2023-12-20T13:23:28;42.97;;;26.75;;
79139;SDS011;68546;59.142;37.948;2023-12-20T13:25:54;39.92;;;26.40;;
79139;SDS011;68546;59.142;37.948;2023-12-20T13:28:20;43.00;;;27.33;;
79139;SDS011;68546;59.142;37.948;2023-12-20T13:30:47;43.78;;;27.90;;
79139;SDS011;68546;59.142;37.948;2023-12-20T13:33:13;41.20;;;26.67;;
79139;SDS011;68546;59.142;37.948;2023-12-20T13:35:39;44.20;;;26.38;;
79139;SDS011;68546;59.142;37.948;2023-12-20T13:38:06;42.70;;;27.93;;
79139;SDS011;68546;59.142;37.948;2023-12-20T13:40:33;40.97;;;26.40;;
79139;SDS011;68546;59.142;37.948;2023-12-20T13:42:59;45.25;;;27.15;;
79139;SDS011;68546;59.142;37.948;2023-12-20T13:45:25;44.27;;;28.33;;
79139;SDS011;68546;59.142;37.948;2023-12-20T13:47:57;51.60;;;29.65;;
79139;SDS011;68546;59.142;37.948;2023-12-20T13:50:24;46.28;;;27.80;;
79139;SDS011;68546;59.142;37.948;2023-12-20T13:52:51;49.17;;;28.02;;
79139;SDS011;68546;59.142;37.948;2023-12-20T13:55:18;52.47;;;29.07;;
79139;SDS011;68546;59.142;37.948;2023-12-20T13:57:47;48.97;;;29.00;;
79139;SDS011;68546;59.142;37.948;2023-12-20T14:00:14;50.85;;;28.83;;
79139;SDS011;68546;59.142;37.948;2023-12-20T14:02:41;57.57;;;30.90;;
79139;SDS011;68546;59.142;37.948;2023-12-20T14:05:11;47.15;;;29.25;;
79139;SDS011;68546;59.142;37.948;2023-12-20T14:07:37;51.75;;;30.25;;
79139;SDS011;68546;59.142;37.948;2023-12-20T14:10:03;51.92;;;29.27;;
79139;SDS011;68546;59.142;37.948;2023-12-20T14:12:31;49.40;;;28.87;;
79139;SDS011;68546;59.142;37.948;2023-12-20T14:15:01;44.05;;;26.92;;
79139;SDS011;68546;59.142;37.948;2023-12-20T14:17:28;49.25;;;27.60;;
79139;SDS011;68546;59.142;37.948;2023-12-20T14:19:54;41.95;;;25.98;;
79139;SDS011;68546;59.142;37.948;2023-12-20T14:22:21;41.83;;;27.77;;
79139;SDS011;68546;59.142;37.948;2023-12-20T14:24:47;43.10;;;27.00;;